Time;durP1;ratioP1;P1;durP2;ratioP2;P2;SDS_P1;SDS_P2;PMS_P1;PMS_P2;Temp;Humidity;BMP_temperature;BMP_pressure;BME280_temperature;BME280_humidity;BME280_pressure;Samples;Min_cycle;Max_cycle;Signal;HPM_P1;HPM_P2
2021/03/16 00:01:02;;;;;;;4.93;1.35;;;5.20;99.90;;;;;;5073246;28;20205;-87
2021/03/16 00:03:28;;;;;;;3.90;2.50;;;5.20;99.90;;;;;;5071523;28;20328;-83
2021/03/16 00:05:55;;;;;;;8.80;3.08;;;5.20;99.90;;;;;;5071321;28;20292;-84
2021/03/16 00:08:21;;;;;;;2.47;1.73;;;5.20;99.90;;;;;;5073695;28;20280;-84
2021/03/16 00:10:47;;;;;;;2.88;2.67;;;5.20;99.90;;;;;;5073852;28;20202;-84
2021/03/16 00:13:14;;;;;;;6.63;2.92;;;5.20;99.90;;;;;;5068572;28;20229;-84
2021/03/16 00:15:40;;;;;;;4.25;1.95;;;5.20;99.90;;;;;;5070383;28;20653;-85
2021/03/16 00:18:14;;;;;;;2.85;2.20;;;5.20;99.90;;;;;;5070429;28;20679;-85
2021/03/16 00:20:40;;;;;;;10.32;2.60;;;5.10;99.90;;;;;;5072520;28;20205;-82
2021/03/16 00:23:07;;;;;;;12.02;3.08;;;5.10;99.90;;;;;;5073834;28;20225;-91
2021/03/16 00:25:34;;;;;;;3.88;2.45;;;5.10;99.90;;;;;;5073844;28;20205;-87
2021/03/16 00:28:00;;;;;;;4.72;2.00;;;5.10;99.90;;;;;;5030913;28;20298;-87
2021/03/16 00:30:27;;;;;;;6.72;2.30;;;5.10;99.90;;;;;;5028632;28;20223;-81
2021/03/16 00:32:54;;;;;;;3.80;2.03;;;5.10;99.90;;;;;;5030601;28;20309;-84
2021/03/16 00:35:22;;;;;;;2.60;2.00;;;5.10;99.90;;;;;;5032852;28;20211;-86
2021/03/16 00:37:48;;;;;;;5.75;3.95;;;5.10;99.90;;;;;;5040743;28;20269;-87
2021/03/16 00:40:15;;;;;;;6.97;3.97;;;5.10;99.90;;;;;;5043475;28;20749;-80
2021/03/16 00:42:41;;;;;;;3.55;2.00;;;5.10;99.90;;;;;;5043667;28;20270;-81
2021/03/16 00:45:09;;;;;;;7.47;2.05;;;5.10;99.90;;;;;;5031553;28;20238;-82
2021/03/16 00:47:35;;;;;;;3.03;2.75;;;5.20;99.90;;;;;;5037742;28;20203;-85
2021/03/16 00:50:02;;;;;;;1.13;1.00;;;5.90;99.90;;;;;;5042775;28;20225;-81
2021/03/16 00:52:29;;;;;;;5.25;1.90;;;5.20;99.90;;;;;;5062984;28;20209;-80
2021/03/16 00:54:55;;;;;;;1.92;1.42;;;5.20;99.90;;;;;;5074097;28;20284;-81
2021/03/16 00:57:22;;;;;;;3.72;2.35;;;5.20;99.90;;;;;;5073138;28;20738;-82
2021/03/16 00:59:48;;;;;;;3.08;1.70;;;5.20;99.90;;;;;;5072361;28;20263;-84
2021/03/16 01:02:15;;;;;;;2.35;1.80;;;5.20;99.90;;;;;;5072767;28;20569;-84
2021/03/16 01:04:41;;;;;;;2.33;1.52;;;5.20;99.90;;;;;;5072107;28;20232;-86
2021/03/16 01:07:08;;;;;;;1.55;1.42;;;5.20;99.90;;;;;;5072897;28;20292;-83
2021/03/16 01:09:35;;;;;;;5.13;2.28;;;5.20;99.90;;;;;;5072982;28;20634;-85
2021/03/16 01:12:02;;;;;;;3.85;1.80;;;5.20;99.90;;;;;;5073078;28;20748;-85
2021/03/16 01:14:29;;;;;;;3.95;2.08;;;5.30;99.90;;;;;;5075920;28;20197;-83
2021/03/16 01:16:55;;;;;;;1.08;0.95;;;5.20;99.90;;;;;;5076492;28;20236;-85
2021/03/16 01:19:21;;;;;;;8.50;1.90;;;6.30;99.90;;;;;;5082175;28;20201;-82
2021/03/16 01:21:48;;;;;;;3.78;1.35;;;5.20;99.90;;;;;;5077055;28;20297;-81
2021/03/16 01:24:14;;;;;;;5.55;2.20;;;5.30;99.90;;;;;;5076516;28;20286;-82
2021/03/16 01:26:41;;;;;;;3.60;1.10;;;5.30;99.90;;;;;;5076673;28;20211;-82
2021/03/16 01:29:08;;;;;;;5.10;2.08;;;5.20;99.90;;;;;;5076619;28;20301;-81
2021/03/16 01:31:35;;;;;;;5.35;2.00;;;5.20;99.90;;;;;;5076467;28;20237;-90
2021/03/16 01:34:01;;;;;;;1.63;1.35;;;5.20;99.90;;;;;;5075248;28;20751;-81
2021/03/16 01:36:28;;;;;;;4.95;1.60;;;5.30;99.90;;;;;;5076532;28;20280;-89
2021/03/16 01:38:54;;;;;;;4.70;2.08;;;5.20;99.90;;;;;;5076351;28;20299;-81
2021/03/16 01:41:21;;;;;;;7.35;2.10;;;5.10;99.90;;;;;;5076239;28;20288;-86
2021/03/16 01:43:48;;;;;;;1.98;1.60;;;5.20;99.90;;;;;;5075351;28;20265;-81
2021/03/16 01:46:17;;;;;;;1.85;1.48;;;5.20;99.90;;;;;;5076341;28;20296;-86
2021/03/16 01:48:44;;;;;;;1.73;1.63;;;5.20;99.90;;;;;;5074323;28;20279;-80
2021/03/16 01:51:11;;;;;;;3.28;3.08;;;5.20;99.90;;;;;;5076408;28;20252;-82
2021/03/16 01:53:39;;;;;;;5.40;3.25;;;5.60;99.90;;;;;;5076800;28;20209;-84
2021/03/16 01:56:07;;;;;;;2.75;1.80;;;5.10;99.90;;;;;;5075735;28;20316;-86
2021/03/16 01:58:34;;;;;;;2.97;2.25;;;5.10;99.90;;;;;;5076121;28;20241;-84
2021/03/16 02:01:01;;;;;;;8.18;1.90;;;5.00;99.90;;;;;;5075242;28;20244;-83
2021/03/16 02:03:28;;;;;;;6.20;2.40;;;6.70;99.90;;;;;;5074426;28;20735;-79
2021/03/16 02:05:54;;;;;;;7.05;2.42;;;5.00;99.90;;;;;;5075766;28;20288;-83
2021/03/16 02:08:28;;;;;;;3.92;2.08;;;5.10;99.90;;;;;;5075570;28;20292;-80
2021/03/16 02:11:01;;;;;;;5.30;1.92;;;5.10;99.90;;;;;;5075796;28;20717;-86
2021/03/16 02:13:38;;;;;;;2.42;2.22;;;5.10;99.90;;;;;;5074453;28;20563;-83
2021/03/16 02:16:11;;;;;;;2.70;2.03;;;5.30;99.90;;;;;;5075608;28;20255;-83
2021/03/16 02:18:43;;;;;;;1.70;1.38;;;5.10;99.90;;;;;;5073324;28;20335;-83
2021/03/16 02:21:13;;;;;;;2.88;1.65;;;5.10;99.90;;;;;;5075513;28;20292;-82
2021/03/16 02:24:06;;;;;;;4.18;2.38;;;5.10;99.90;;;;;;5075311;28;20316;-83
2021/03/16 02:26:38;;;;;;;4.63;2.05;;;5.00;99.90;;;;;;5074539;28;20596;-80
2021/03/16 02:29:10;;;;;;;2.70;1.95;;;5.00;99.90;;;;;;5075257;28;20288;-80
2021/03/16 02:31:40;;;;;;;1.63;1.52;;;5.00;99.90;;;;;;5075523;28;20669;-85
2021/03/16 02:34:08;;;;;;;2.38;1.23;;;5.40;99.90;;;;;;5073795;28;20284;-82
2021/03/16 02:36:36;;;;;;;3.25;1.65;;;4.90;99.90;;;;;;5075366;28;20331;-83
2021/03/16 02:39:05;;;;;;;9.07;2.40;;;4.90;99.90;;;;;;5075181;28;20293;-83
2021/03/16 02:41:33;;;;;;;2.33;1.73;;;4.90;99.90;;;;;;5075037;28;20201;-84
2021/03/16 02:44:00;;;;;;;6.15;1.90;;;4.90;99.90;;;;;;5073945;28;20233;-83
2021/03/16 02:46:28;;;;;;;5.60;2.25;;;4.90;99.90;;;;;;5075037;28;20669;-83
2021/03/16 02:48:56;;;;;;;2.65;1.00;;;4.90;99.90;;;;;;5072824;28;20288;-88
2021/03/16 02:51:24;;;;;;;4.63;2.85;;;4.90;99.90;;;;;;5075098;28;20236;-85
2021/03/16 02:53:52;;;;;;;4.75;2.30;;;4.90;99.90;;;;;;5074794;28;20212;-83
2021/03/16 02:56:20;;;;;;;2.65;1.55;;;5.00;99.90;;;;;;5074781;28;20323;-83
2021/03/16 02:58:48;;;;;;;4.78;2.08;;;4.90;99.90;;;;;;5074700;28;20233;-86
2021/03/16 03:01:16;;;;;;;2.92;1.75;;;4.80;99.90;;;;;;5073057;28;20845;-80
2021/03/16 03:03:45;;;;;;;4.13;2.53;;;4.90;99.90;;;;;;5073757;28;20229;-85
2021/03/16 03:06:15;;;;;;;5.60;1.63;;;4.90;99.90;;;;;;5074398;28;20201;-84
2021/03/16 03:08:44;;;;;;;4.03;2.15;;;4.90;99.90;;;;;;5052186;28;20294;-84
2021/03/16 03:11:11;;;;;;;5.28;2.17;;;4.90;99.90;;;;;;5049633;28;20206;-86
2021/03/16 03:13:38;;;;;;;1.75;1.65;;;4.90;99.90;;;;;;5052224;28;20206;-82
2021/03/16 03:16:05;;;;;;;7.05;2.85;;;5.20;99.90;;;;;;5049526;28;20210;-84
2021/03/16 03:18:32;;;;;;;1.20;1.02;;;4.80;99.90;;;;;;4971081;28;20295;-83
2021/03/16 03:21:00;;;;;;;3.67;2.78;;;4.80;99.90;;;;;;4972187;28;20659;-79
2021/03/16 03:23:31;;;;;;;2.70;1.90;;;4.80;99.90;;;;;;4973316;28;20320;-85
2021/03/16 03:26:02;;;;;;;3.63;2.47;;;4.80;99.90;;;;;;4979420;28;20210;-85
2021/03/16 03:28:32;;;;;;;4.53;2.28;;;4.70;99.90;;;;;;5009852;28;20207;-85
2021/03/16 03:31:00;;;;;;;4.15;2.65;;;4.70;99.90;;;;;;5012766;28;20836;-81
2021/03/16 03:33:29;;;;;;;3.30;1.55;;;4.60;99.90;;;;;;5010864;28;20306;-81
2021/03/16 03:35:56;;;;;;;1.25;0.90;;;4.80;99.90;;;;;;5012051;28;20208;-87
2021/03/16 03:38:26;;;;;;;3.60;2.83;;;4.40;99.90;;;;;;5012118;28;20214;-81
2021/03/16 03:40:53;;;;;;;8.63;2.25;;;4.30;99.90;;;;;;5012185;28;20203;-81
2021/03/16 03:43:20;;;;;;;3.45;1.98;;;4.30;99.90;;;;;;5011936;28;20265;-81
2021/03/16 03:45:50;;;;;;;4.10;2.03;;;4.30;99.90;;;;;;5012114;28;20225;-92
2021/03/16 03:48:17;;;;;;;4.68;1.80;;;4.20;99.90;;;;;;5010733;28;20211;-84
2021/03/16 03:50:45;;;;;;;6.60;3.22;;;4.20;99.90;;;;;;5072800;28;20205;-80
2021/03/16 03:53:13;;;;;;;4.50;2.30;;;4.10;99.90;;;;;;5073730;28;20197;-82
2021/03/16 03:55:43;;;;;;;5.22;2.45;;;4.20;99.90;;;;;;5073486;28;20237;-81
2021/03/16 03:58:10;;;;;;;9.50;2.15;;;4.20;99.90;;;;;;5073729;28;20292;-90
2021/03/16 04:00:37;;;;;;;2.63;2.42;;;4.20;99.90;;;;;;5073479;28;20297;-80
2021/03/16 04:03:04;;;;;;;5.22;2.25;;;4.20;99.90;;;;;;5072125;28;20296;-89
2021/03/16 04:05:31;;;;;;;1.63;1.52;;;4.20;99.90;;;;;;5073235;28;20209;-85
2021/03/16 04:07:58;;;;;;;2.55;1.70;;;4.20;99.90;;;;;;5073442;28;20297;-80
2021/03/16 04:10:25;;;;;;;3.83;2.75;;;5.00;99.90;;;;;;5073348;28;20296;-86
2021/03/16 04:12:53;;;;;;;2.30;1.50;;;4.20;99.90;;;;;;5073574;28;20622;-84
2021/03/16 04:15:21;;;;;;;3.35;1.95;;;4.20;99.90;;;;;;5073267;28;20299;-82
2021/03/16 04:17:47;;;;;;;3.30;2.33;;;4.30;99.90;;;;;;5072108;28;20284;-84
2021/03/16 04:20:17;;;;;;;3.42;2.47;;;4.20;99.90;;;;;;5072189;28;20258;-84
2021/03/16 04:22:43;;;;;;;4.20;2.10;;;4.30;99.90;;;;;;5073345;28;20214;-89
2021/03/16 04:25:11;;;;;;;5.03;2.45;;;4.30;99.90;;;;;;5073080;28;20316;-85
2021/03/16 04:27:38;;;;;;;4.32;1.83;;;4.30;99.90;;;;;;5072287;28;20296;-86
2021/03/16 04:30:07;;;;;;;2.75;1.48;;;4.30;99.90;;;;;;5073165;28;20210;-84
2021/03/16 04:32:34;;;;;;;1.40;1.30;;;4.30;99.90;;;;;;5072673;28;20300;-82
2021/03/16 04:35:01;;;;;;;2.38;2.17;;;4.30;99.90;;;;;;5072692;28;20291;-79
2021/03/16 04:37:27;;;;;;;3.72;1.27;;;4.20;99.90;;;;;;5073063;28;20297;-82
2021/03/16 04:39:54;;;;;;;6.07;1.50;;;4.30;99.90;;;;;;5073423;28;20619;-82
2021/03/16 04:42:20;;;;;;;6.18;1.73;;;4.20;99.90;;;;;;5074303;28;20244;-82
2021/03/16 04:44:47;;;;;;;8.57;2.20;;;4.30;99.90;;;;;;5072243;28;20260;-84
2021/03/16 04:47:14;;;;;;;3.65;1.90;;;4.20;99.90;;;;;;5073774;28;20284;-83
2021/03/16 04:49:40;;;;;;;3.70;1.73;;;4.20;99.90;;;;;;5078224;28;20233;-83
2021/03/16 04:52:07;;;;;;;3.50;1.95;;;4.20;99.90;;;;;;5086331;28;20225;-82
2021/03/16 04:54:33;;;;;;;2.50;1.90;;;4.20;99.90;;;;;;5080099;28;20229;-83
2021/03/16 04:56:59;;;;;;;3.28;2.40;;;4.10;99.90;;;;;;5074660;28;20229;-79
2021/03/16 04:59:26;;;;;;;6.03;1.35;;;4.20;99.90;;;;;;5084579;28;20225;-81
2021/03/16 05:01:52;;;;;;;6.38;1.90;;;5.20;99.90;;;;;;5082171;28;20284;-81
2021/03/16 05:04:19;;;;;;;2.10;1.92;;;4.20;99.90;;;;;;5075431;28;20265;-82
2021/03/16 05:06:46;;;;;;;1.92;1.70;;;4.30;99.90;;;;;;5073583;28;20716;-85
2021/03/16 05:09:13;;;;;;;6.50;2.85;;;4.40;99.90;;;;;;5073237;28;20237;-89
2021/03/16 05:11:40;;;;;;;5.05;1.80;;;4.20;99.90;;;;;;5072812;28;20233;-83
2021/03/16 05:14:06;;;;;;;2.38;1.73;;;4.20;99.90;;;;;;5072302;28;20339;-81
2021/03/16 05:16:32;;;;;;;3.65;1.52;;;4.20;99.90;;;;;;5072720;28;20236;-84
2021/03/16 05:19:01;;;;;;;4.28;2.15;;;4.20;99.90;;;;;;5070827;28;20224;-81
2021/03/16 05:21:28;;;;;;;5.45;1.88;;;4.20;99.90;;;;;;5072680;28;20201;-81
2021/03/16 05:23:55;;;;;;;11.77;2.53;;;4.60;99.90;;;;;;5072690;28;20324;-84
2021/03/16 05:26:21;;;;;;;5.53;2.08;;;4.20;99.90;;;;;;5072483;28;20296;-83
2021/03/16 05:28:48;;;;;;;7.20;2.78;;;4.20;99.90;;;;;;5071904;28;20437;-81
2021/03/16 05:31:14;;;;;;;1.67;1.55;;;4.30;99.90;;;;;;5072546;28;20236;-84
2021/03/16 05:33:40;;;;;;;6.90;2.47;;;4.30;99.90;;;;;;5071136;28;20288;-81
2021/03/16 05:36:07;;;;;;;2.15;1.65;;;4.20;99.90;;;;;;5072698;28;20292;-83
2021/03/16 05:38:34;;;;;;;8.27;1.65;;;4.20;99.90;;;;;;5072416;28;20715;-81
2021/03/16 05:41:01;;;;;;;2.78;2.15;;;4.20;99.90;;;;;;5072471;28;20297;-81
2021/03/16 05:43:31;;;;;;;15.40;8.25;;;4.10;99.90;;;;;;5072458;28;20292;-83
2021/03/16 05:45:57;;;;;;;11.43;6.72;;;4.00;99.90;;;;;;5071450;28;20250;-83
2021/03/16 05:48:28;;;;;;;3.78;2.30;;;4.00;99.90;;;;;;5071197;28;20297;-86
2021/03/16 05:50:55;;;;;;;1.83;1.70;;;4.00;99.90;;;;;;5072480;28;20294;-83
2021/03/16 05:53:23;;;;;;;6.10;2.45;;;4.10;99.90;;;;;;5072369;28;20300;-81
2021/03/16 05:55:50;;;;;;;3.60;2.45;;;4.10;99.90;;;;;;5071882;28;20202;-80
2021/03/16 05:58:18;;;;;;;3.35;3.05;;;4.20;99.90;;;;;;5072340;28;20202;-81
2021/03/16 06:00:45;;;;;;;4.80;2.15;;;4.20;99.90;;;;;;5070128;28;20284;-83
2021/03/16 06:03:11;;;;;;;3.88;2.22;;;5.50;99.90;;;;;;5074732;28;20228;-82
2021/03/16 06:05:38;;;;;;;3.97;2.60;;;4.40;99.90;;;;;;5074751;28;20367;-82
2021/03/16 06:08:05;;;;;;;2.70;2.03;;;4.20;99.90;;;;;;5075675;28;20229;-83
2021/03/16 06:10:34;;;;;;;7.47;3.03;;;4.20;99.90;;;;;;5075821;28;20254;-79
2021/03/16 06:13:10;;;;;;;9.23;3.28;;;4.20;99.90;;;;;;5075726;28;20288;-80
2021/03/16 06:15:37;;;;;;;3.30;2.08;;;4.30;99.90;;;;;;5075988;28;20205;-82
2021/03/16 06:18:03;;;;;;;4.10;2.35;;;4.30;99.90;;;;;;5073418;28;20296;-82
2021/03/16 06:20:31;;;;;;;6.18;2.42;;;4.30;99.90;;;;;;5075174;28;20731;-81
2021/03/16 06:23:05;;;;;;;3.30;2.17;;;4.30;99.90;;;;;;5075409;28;20665;-85
2021/03/16 06:25:33;;;;;;;4.50;2.25;;;4.40;99.90;;;;;;5075144;28;20229;-83
2021/03/16 06:28:00;;;;;;;4.47;2.80;;;4.40;99.90;;;;;;5075230;28;20241;-81
2021/03/16 06:30:28;;;;;;;1.70;1.60;;;4.50;99.90;;;;;;5075259;28;20331;-84
2021/03/16 06:32:54;;;;;;;8.45;1.65;;;4.50;99.90;;;;;;5074108;28;20202;-83
2021/03/16 06:35:21;;;;;;;2.38;2.00;;;4.50;99.90;;;;;;5074788;28;20205;-86
2021/03/16 06:38:07;;;;;;;5.40;2.00;;;4.50;99.90;;;;;;5075757;28;20293;-84
2021/03/16 06:40:35;;;;;;;4.45;1.83;;;4.50;99.90;;;;;;5075466;28;20229;-85
2021/03/16 06:43:03;;;;;;;4.45;2.05;;;4.50;99.90;;;;;;5075631;28;20229;-82
2021/03/16 06:45:32;;;;;;;2.20;1.70;;;4.50;99.90;;;;;;5074858;28;20232;-81
2021/03/16 06:47:59;;;;;;;6.25;2.70;;;4.60;99.90;;;;;;5074476;28;20586;-84
2021/03/16 06:50:29;;;;;;;1.65;1.55;;;4.60;99.90;;;;;;5074022;28;20296;-82
2021/03/16 06:52:57;;;;;;;4.88;2.35;;;4.60;99.90;;;;;;5074979;28;20289;-84
2021/03/16 06:55:24;;;;;;;5.40;2.38;;;4.60;99.90;;;;;;5075016;28;20212;-84
2021/03/16 06:57:50;;;;;;;1.92;1.48;;;4.70;99.90;;;;;;5074680;28;20594;-82
2021/03/16 07:00:18;;;;;;;1.50;1.13;;;4.60;99.90;;;;;;5074665;28;20205;-87
2021/03/16 07:02:45;;;;;;;2.88;1.40;;;4.70;99.90;;;;;;5070568;28;20237;-87
2021/03/16 07:05:12;;;;;;;7.15;2.35;;;4.70;99.90;;;;;;5073851;28;20264;-82
2021/03/16 07:07:42;;;;;;;2.03;1.85;;;4.80;99.90;;;;;;5074971;28;20284;-87
2021/03/16 07:10:09;;;;;;;2.13;1.40;;;4.70;99.90;;;;;;5074893;28;20613;-84
2021/03/16 07:12:36;;;;;;;1.70;1.60;;;4.70;99.90;;;;;;5074528;28;20293;-87
2021/03/16 07:15:04;;;;;;;4.47;2.25;;;4.80;99.90;;;;;;5075129;28;20292;-86
2021/03/16 07:17:33;;;;;;;1.70;1.58;;;4.80;99.90;;;;;;5075338;28;20343;-86
2021/03/16 07:20:05;;;;;;;4.03;1.67;;;4.70;99.90;;;;;;5072847;28;20263;-86
2021/03/16 07:22:37;;;;;;;5.35;2.25;;;4.80;99.90;;;;;;5074425;28;20661;-88
2021/03/16 07:25:08;;;;;;;4.07;1.88;;;4.70;99.90;;;;;;5074551;28;20233;-88
2021/03/16 07:27:34;;;;;;;6.35;2.25;;;4.70;99.90;;;;;;5074322;28;20300;-81
2021/03/16 07:30:01;;;;;;;6.07;2.80;;;4.60;99.90;;;;;;5074339;28;20205;-86
2021/03/16 07:32:30;;;;;;;4.13;2.80;;;4.60;99.90;;;;;;5073847;28;20229;-87
2021/03/16 07:35:01;;;;;;;2.00;1.80;;;4.50;99.90;;;;;;5072677;28;20285;-81
2021/03/16 07:37:29;;;;;;;4.25;2.58;;;4.40;99.90;;;;;;5073751;28;20206;-79
2021/03/16 07:40:00;;;;;;;3.42;2.15;;;4.40;99.90;;;;;;5073747;28;20233;-89
2021/03/16 07:42:27;;;;;;;4.45;2.05;;;4.30;99.90;;;;;;5073659;28;20233;-86
2021/03/16 07:44:54;;;;;;;4.22;2.63;;;4.40;99.90;;;;;;5073608;28;20265;-85
2021/03/16 07:47:20;;;;;;;2.58;1.92;;;4.40;99.90;;;;;;5073576;28;20205;-86
2021/03/16 07:49:47;;;;;;;3.85;2.45;;;4.40;99.90;;;;;;5071860;28;20662;-83
2021/03/16 07:52:21;;;;;;;3.00;1.80;;;4.60;99.90;;;;;;5065568;28;20256;-87
2021/03/16 07:54:48;;;;;;;2.78;2.00;;;4.60;99.90;;;;;;5072496;28;20690;-88
2021/03/16 07:57:25;;;;;;;5.30;3.03;;;4.70;99.90;;;;;;5073525;28;20272;-86
2021/03/16 07:59:59;;;;;;;10.88;3.05;;;5.00;99.90;;;;;;5073207;28;20209;-84
2021/03/16 08:02:28;;;;;;;3.78;2.40;;;4.80;99.90;;;;;;5073647;28;20254;-83
2021/03/16 08:04:55;;;;;;;5.60;3.08;;;4.80;99.90;;;;;;5071467;28;20778;-84
2021/03/16 08:07:24;;;;;;;3.83;2.70;;;5.00;99.90;;;;;;5073129;28;20236;-85
2021/03/16 08:09:52;;;;;;;2.58;2.35;;;5.00;99.90;;;;;;5074276;28;20208;-82
2021/03/16 08:12:24;;;;;;;9.75;3.10;;;5.10;99.90;;;;;;5073862;28;20247;-87
2021/03/16 08:14:51;;;;;;;3.17;2.60;;;5.10;99.90;;;;;;5074443;28;20237;-82
2021/03/16 08:17:28;;;;;;;10.15;2.88;;;5.00;99.90;;;;;;5072938;28;20672;-86
2021/03/16 08:19:54;;;;;;;7.93;2.22;;;5.00;99.90;;;;;;5070843;28;20209;-87
2021/03/16 08:22:22;;;;;;;7.30;3.45;;;5.00;99.90;;;;;;5072588;28;20202;-85
2021/03/16 08:24:52;;;;;;;2.67;2.45;;;5.10;99.90;;;;;;5072900;28;20233;-87
2021/03/16 08:27:19;;;;;;;11.48;2.80;;;5.10;99.90;;;;;;5073415;28;20237;-86
2021/03/16 08:29:47;;;;;;;1.90;1.67;;;5.20;99.90;;;;;;5073335;28;20247;-90
2021/03/16 08:32:15;;;;;;;7.85;2.22;;;5.30;99.90;;;;;;5074402;28;20205;-88
2021/03/16 08:34:43;;;;;;;6.03;2.25;;;5.40;99.90;;;;;;5072243;28;20235;-81
2021/03/16 08:37:21;;;;;;;7.05;1.80;;;5.40;99.90;;;;;;5073490;28;20743;-85
2021/03/16 08:39:48;;;;;;;8.73;2.25;;;5.40;99.90;;;;;;5073920;28;20300;-81
2021/03/16 08:42:17;;;;;;;3.83;1.88;;;5.30;99.90;;;;;;5073778;28;20577;-88
2021/03/16 08:44:45;;;;;;;5.22;2.42;;;5.40;99.90;;;;;;5074292;28;20217;-89
2021/03/16 08:47:14;;;;;;;8.20;2.17;;;5.10;99.90;;;;;;5074926;28;20233;-90
2021/03/16 08:49:42;;;;;;;7.97;4.15;;;5.00;99.90;;;;;;5074365;28;20292;-91
2021/03/16 08:52:17;;;;;;;9.75;2.80;;;5.00;99.90;;;;;;5074702;28;20300;-91
2021/03/16 08:54:44;;;;;;;3.40;2.35;;;5.10;99.90;;;;;;5075224;28;20287;-89
2021/03/16 08:57:11;;;;;;;5.97;2.42;;;5.10;99.90;;;;;;5083862;28;20264;-87
2021/03/16 08:59:38;;;;;;;9.68;2.90;;;5.20;99.90;;;;;;5092353;28;20205;-80
2021/03/16 09:02:05;;;;;;;2.75;2.55;;;5.20;99.90;;;;;;5083887;28;20212;-88
2021/03/16 09:04:35;;;;;;;9.43;3.05;;;5.30;99.90;;;;;;5079348;28;20260;-89
2021/03/16 09:07:01;;;;;;;9.40;2.90;;;5.50;99.90;;;;;;5096504;28;20205;-86
2021/03/16 09:09:30;;;;;;;12.90;3.53;;;5.50;99.90;;;;;;5095583;28;20205;-86
2021/03/16 09:11:58;;;;;;;4.38;3.00;;;5.60;99.90;;;;;;5084000;28;20660;-87
2021/03/16 09:14:24;;;;;;;6.63;2.20;;;5.70;99.90;;;;;;5076954;28;20186;-88
2021/03/16 09:16:52;;;;;;;5.20;2.78;;;5.70;99.90;;;;;;5076002;28;20208;-87
2021/03/16 09:19:21;;;;;;;5.90;2.72;;;5.80;99.90;;;;;;5072467;28;20213;-87
2021/03/16 09:21:50;;;;;;;2.20;1.67;;;6.00;99.90;;;;;;5072934;28;20205;-84
2021/03/16 09:24:20;;;;;;;2.90;2.20;;;6.10;99.90;;;;;;5072659;28;20282;-78
2021/03/16 09:26:52;;;;;;;12.80;2.78;;;5.90;99.90;;;;;;5072434;28;20688;-79
2021/03/16 09:29:20;;;;;;;7.82;2.30;;;6.00;99.90;;;;;;5072390;28;20287;-84
2021/03/16 09:31:46;;;;;;;5.32;2.50;;;6.10;99.90;;;;;;5072550;28;20201;-91
2021/03/16 09:34:14;;;;;;;7.68;2.88;;;6.10;99.90;;;;;;5072294;28;20251;-83
2021/03/16 09:36:40;;;;;;;7.13;2.75;;;6.30;99.90;;;;;;5076380;28;20208;-91
2021/03/16 09:39:06;;;;;;;7.80;2.55;;;6.30;99.90;;;;;;5076581;28;20197;-87
2021/03/16 09:41:34;;;;;;;4.40;2.40;;;6.40;99.90;;;;;;5076573;28;20201;-88
2021/03/16 09:44:00;;;;;;;8.65;2.67;;;6.30;99.90;;;;;;5077019;28;20225;-83
2021/03/16 09:46:27;;;;;;;4.63;2.67;;;6.30;99.90;;;;;;5077110;28;20546;-85
2021/03/16 09:48:55;;;;;;;10.77;3.50;;;6.40;99.90;;;;;;5074351;28;20193;-83
2021/03/16 09:51:24;;;;;;;5.72;4.70;;;6.40;99.90;;;;;;5076128;28;20201;-84
2021/03/16 09:53:55;;;;;;;6.72;3.08;;;6.40;99.90;;;;;;5076697;28;20293;-84
2021/03/16 09:56:26;;;;;;;4.25;2.90;;;6.40;99.90;;;;;;5076985;28;20283;-86
2021/03/16 09:58:56;;;;;;;7.80;2.30;;;6.40;99.90;;;;;;5075919;28;20240;-84
2021/03/16 10:01:23;;;;;;;8.98;3.17;;;6.40;99.90;;;;;;5076217;28;20289;-83
2021/03/16 10:03:57;;;;;;;6.95;2.30;;;6.30;99.90;;;;;;5074125;28;20691;-89
2021/03/16 10:06:34;;;;;;;4.82;2.30;;;6.40;99.90;;;;;;5075152;28;20208;-88
2021/03/16 10:09:01;;;;;;;3.45;2.28;;;6.50;99.90;;;;;;5076099;28;20246;-85
2021/03/16 10:11:34;;;;;;;3.90;2.97;;;6.60;99.90;;;;;;5075988;28;20439;-84
2021/03/16 10:14:00;;;;;;;2.85;1.65;;;6.40;99.90;;;;;;5075933;28;20213;-83
2021/03/16 10:16:30;;;;;;;3.38;2.28;;;6.30;99.90;;;;;;5075564;28;20210;-87
2021/03/16 10:18:58;;;;;;;4.20;1.77;;;6.10;99.90;;;;;;5073418;28;20217;-83
2021/03/16 10:21:32;;;;;;;4.40;2.60;;;6.20;99.90;;;;;;5076358;28;20201;-85
2021/03/16 10:24:01;;;;;;;5.10;2.90;;;6.40;99.90;;;;;;5075902;28;20279;-87
2021/03/16 10:26:27;;;;;;;2.30;2.03;;;6.60;99.90;;;;;;5075784;28;20210;-86
2021/03/16 10:28:54;;;;;;;5.53;3.10;;;6.50;99.90;;;;;;5075553;28;20288;-87
2021/03/16 10:31:22;;;;;;;4.68;2.20;;;6.60;99.90;;;;;;5075552;28;20465;-84
2021/03/16 10:33:50;;;;;;;4.03;1.98;;;6.60;99.90;;;;;;5075384;28;20328;-86
2021/03/16 10:36:18;;;;;;;4.40;2.70;;;6.40;99.90;;;;;;5075553;28;20208;-85
2021/03/16 10:38:48;;;;;;;3.22;2.70;;;6.30;99.90;;;;;;5076311;28;20324;-90
2021/03/16 10:41:14;;;;;;;5.13;2.25;;;6.30;99.90;;;;;;5075884;28;20209;-86
2021/03/16 10:43:41;;;;;;;6.47;3.47;;;6.10;99.90;;;;;;5074665;28;20442;-92
2021/03/16 10:46:07;;;;;;;5.80;2.25;;;6.20;99.90;;;;;;5074474;28;20293;-82
2021/03/16 10:48:34;;;;;;;9.05;3.22;;;6.40;99.90;;;;;;5073376;28;20296;-81
2021/03/16 10:51:00;;;;;;;5.75;3.10;;;6.60;99.90;;;;;;5074120;28;20201;-85
2021/03/16 10:53:27;;;;;;;8.98;2.92;;;6.50;99.90;;;;;;5075033;28;20292;-82
2021/03/16 10:55:54;;;;;;;5.05;3.70;;;6.80;99.90;;;;;;5074914;28;20708;-82
2021/03/16 10:58:20;;;;;;;4.07;3.15;;;6.80;99.90;;;;;;5074375;28;20819;-87
2021/03/16 11:00:46;;;;;;;3.38;2.53;;;6.70;99.90;;;;;;5075059;28;20616;-84
2021/03/16 11:03:13;;;;;;;9.02;3.42;;;6.70;99.90;;;;;;5073602;28;20198;-89
2021/03/16 11:05:41;;;;;;;8.48;2.67;;;6.80;99.90;;;;;;5075026;28;20233;-88
2021/03/16 11:08:07;;;;;;;4.57;2.85;;;7.30;99.90;;;;;;5074253;28;20292;-91
2021/03/16 11:10:35;;;;;;;6.53;3.38;;;7.70;99.90;;;;;;5074949;28;20599;-80
2021/03/16 11:13:02;;;;;;;6.30;2.58;;;7.80;99.90;;;;;;5074666;28;20205;-85
2021/03/16 11:15:28;;;;;;;5.10;3.00;;;8.30;99.90;;;;;;5070660;28;20706;-89
2021/03/16 11:17:54;;;;;;;11.43;3.55;;;7.40;99.90;;;;;;5073329;28;20214;-87
2021/03/16 11:20:21;;;;;;;6.53;2.30;;;7.40;99.90;;;;;;5073277;28;20284;-85
2021/03/16 11:22:47;;;;;;;9.83;2.40;;;7.20;99.90;;;;;;5075095;28;20547;-85
2021/03/16 11:25:14;;;;;;;6.27;3.00;;;7.50;99.90;;;;;;5074646;28;20582;-84
2021/03/16 11:27:42;;;;;;;5.40;3.38;;;8.10;99.90;;;;;;5074618;28;20494;-86
2021/03/16 11:30:09;;;;;;;4.83;2.90;;;7.70;99.90;;;;;;5074791;28;20293;-87
2021/03/16 11:32:36;;;;;;;6.10;2.77;;;7.90;99.90;;;;;;5072285;28;20507;-85
2021/03/16 11:35:04;;;;;;;5.53;2.60;;;7.80;99.90;;;;;;5074465;28;20534;-84
2021/03/16 11:37:31;;;;;;;12.93;5.00;;;7.70;99.90;;;;;;5073986;28;20871;-93
2021/03/16 11:39:57;;;;;;;4.00;2.57;;;7.70;99.90;;;;;;5074203;28;20456;-83
2021/03/16 11:42:23;;;;;;;3.77;2.33;;;7.80;99.90;;;;;;5074390;28;20459;-84
2021/03/16 11:44:51;;;;;;;5.22;2.22;;;7.90;99.90;;;;;;5074353;28;20570;-91
2021/03/16 11:47:17;;;;;;;5.13;2.90;;;7.40;99.90;;;;;;5074185;28;20343;-91
2021/03/16 11:49:45;;;;;;;8.90;3.10;;;7.40;99.90;;;;;;5034330;28;20725;-86
2021/03/16 11:52:12;;;;;;;2.35;2.13;;;7.50;99.90;;;;;;5073990;28;20927;-82
2021/03/16 11:54:38;;;;;;;3.05;2.10;;;7.40;99.90;;;;;;5073985;28;20662;-89
2021/03/16 11:57:05;;;;;;;12.15;2.90;;;7.30;99.90;;;;;;5073408;28;20276;-89
2021/03/16 11:59:32;;;;;;;3.85;3.00;;;7.10;99.90;;;;;;5073376;28;20292;-88
2021/03/16 12:01:59;;;;;;;3.47;3.10;;;7.10;99.90;;;;;;5071424;28;20214;-89
2021/03/16 12:04:25;;;;;;;3.10;2.80;;;7.20;99.90;;;;;;5068271;28;20256;-91
2021/03/16 12:06:53;;;;;;;9.77;2.53;;;7.00;99.90;;;;;;5073636;28;20250;-80
2021/03/16 12:09:19;;;;;;;8.55;3.38;;;7.20;99.90;;;;;;5073484;28;20232;-83
2021/03/16 12:11:45;;;;;;;4.65;2.90;;;6.80;99.90;;;;;;5074071;28;20343;-84
2021/03/16 12:14:12;;;;;;;2.80;2.50;;;6.60;99.90;;;;;;5073811;28;20210;-83
2021/03/16 12:16:38;;;;;;;5.40;3.92;;;6.60;99.90;;;;;;5073917;28;20368;-88
2021/03/16 12:19:05;;;;;;;3.20;2.70;;;6.50;99.90;;;;;;5071824;28;20225;-83
2021/03/16 12:21:32;;;;;;;4.22;3.05;;;6.40;99.90;;;;;;5072901;28;20284;-85
2021/03/16 12:23:58;;;;;;;6.13;3.75;;;6.30;99.90;;;;;;5073419;28;20286;-83
2021/03/16 12:26:24;;;;;;;5.78;3.53;;;6.50;99.90;;;;;;5073379;28;20208;-84
2021/03/16 12:28:52;;;;;;;3.67;2.67;;;6.60;99.90;;;;;;5073382;28;20709;-88
2021/03/16 12:31:18;;;;;;;15.02;4.97;;;6.80;99.90;;;;;;5073054;28;20253;-86
2021/03/16 12:33:45;;;;;;;3.42;2.33;;;7.30;99.90;;;;;;5072044;28;20197;-80
2021/03/16 12:36:13;;;;;;;2.17;1.90;;;7.40;99.90;;;;;;5072546;28;20251;-84
2021/03/16 12:38:40;;;;;;;3.80;2.67;;;7.60;99.90;;;;;;5073296;28;20826;-84
2021/03/16 12:41:06;;;;;;;3.73;2.30;;;7.90;99.90;;;;;;5073019;28;20284;-83
2021/03/16 12:43:32;;;;;;;3.93;2.53;;;7.90;99.90;;;;;;5073161;28;20471;-85
2021/03/16 12:45:59;;;;;;;4.17;2.90;;;7.80;99.90;;;;;;5073116;28;20582;-88
2021/03/16 12:48:25;;;;;;;5.70;2.30;;;8.00;99.90;;;;;;5071788;28;20543;-89
2021/03/16 12:50:51;;;;;;;5.60;1.80;;;8.00;99.90;;;;;;5074045;28;20554;-83
2021/03/16 12:53:19;;;;;;;5.80;2.30;;;7.80;98.80;;;;;;5074419;28;20480;-81
2021/03/16 12:55:45;;;;;;;3.50;2.00;;;7.70;98.90;;;;;;5073719;28;20495;-87
2021/03/16 12:58:12;;;;;;;4.13;2.30;;;8.00;98.50;;;;;;5055102;28;20444;-89
2021/03/16 13:00:38;;;;;;;5.80;2.67;;;8.00;97.90;;;;;;5080119;28;20837;-86